Resums METAR propers

 

LEBL - Barcelona Airpor, Spain
Distància des de l'estació: SSE 30km
Actualització: 19/11/2017 03:30
Seré
Seré
 Vent del NO
Vent: NO 22 km/h
Temperatura: 8°C
Sensació: 4°C
Rosada: 4°C
Humitat: 76%
Baròmetre: 1020 hPa
Resum: Seré
Visibilitat: major de 10 km
2017/11/19 02:30 LEBL 190230Z 32012KT CAVOK 08/04 Q1020 NOSIG
LELL - Sabadell, Spain
Distància des de l'estació: ONO 14km
Actualització: 19/11/2017 03:30
Seré
Seré
 Vent del ONO
Vent: ONO 6 km/h
Temperatura: 4°C
Rosada: 3°C
Humitat: 93%
Baròmetre: 1020 hPa
Nuvolositat: Seré
Visibilitat: 8 km
2017/11/19 02:30 LELL 190230Z AUTO 29003KT 8000 NCD 04/03 Q1020
 
LEGE - Girona/Costa Bra, Spain
Distància des de l'estació: NE 65km
Actualització: 19/11/2017 03:00
Bancs de boira, Parcialment cobert
Bancs de boira, Parcialment cobert
 Vent del calm
Vent: Calma
Temperatura: 3°C
Rosada: 3°C
Humitat: 100%
Baròmetre: 1020 hPa
Resum: Bancs de boira
Nuvolositat: Parcialment cobert
Visibilitat: 5 km
2017/11/19 02:00 LEGE 190200Z 00000KT 5000 0800N BCFG NSC 03/03 Q1020
LERS - Reus (civ/Mil), Spain
Distància des de l'estació: OSO 96km
Actualització: 19/11/2017 03:30
Seré
Seré
 Vent del N
Vent: N 4 km/h
Temperatura: 5°C
Rosada: 3°C
Humitat: 87%
Baròmetre: 1020 hPa
Nuvolositat: Seré
Visibilitat: 10 km
2017/11/19 02:30 LERS 190230Z AUTO 01002KT 9999 NCD 05/03 Q1020
 
LESU - Pirineus/La Seu, Spain
Distància des de l'estació: NO 121km
Actualització: 18/11/2017 17:00
NO actualitzat
Seré
Seré
 Vent del SO
Vent: SO 13 km/h
Temperatura: 13°C
Rosada: 0°C
Humitat: 41%
Baròmetre: 1019 hPa
Resum: Seré
Visibilitat: major de 10 km
2017/11/18 16:00 LESU 181600Z 23007KT 210V270 CAVOK 13/M00 Q1019
LEDA - Lleida/Alguaire, Spain
Distància des de l'estació: ONO 146km
Actualització: 17/11/2017 14:30
NO actualitzat
Seré
Seré
 Vent del varies
Vent: varies 4 km/h
Temperatura: 13°C
Rosada: 1°C
Humitat: 44%
Baròmetre: 1020 hPa
Resum: Seré
Visibilitat: major de 10 km
2017/11/17 13:30 LEDA 171330Z VRB02KT CAVOK 13/01 Q1020
 
LFMP - Perpignan/Rivesa, France
Distància des de l'estació: NNE 150km
Actualització: 19/11/2017 03:30
Seré
Seré
 Vent del O
Vent: O 22 km/h
Temperatura: 10°C
Sensació: 7°C
Rosada: 3°C
Humitat: 62%
Baròmetre: 1020 hPa
Resum: Seré
Visibilitat: major de 10 km
2017/11/19 02:30 LFMP 190230Z AUTO 28012KT CAVOK 10/03 Q1020 BECMG 33020G30KT
LEPA - Palma De Mallorca, Spain
Distància des de l'estació: S 216km
Actualització: 19/11/2017 03:30
Alguns núvols
Alguns núvols
 Vent del varies
Vent: varies 2 km/h
Temperatura: 6°C
Rosada: 6°C
Humitat: 100%
Baròmetre: 1020 hPa
Nuvolositat: Alguns núvols
Visibilitat: 10 km
Detalls nuvolositat: Alguns núvols 549 m
2017/11/19 02:30 LEPA 190230Z VRB01KT 9999 FEW018 06/06 Q1020 NOSIG